createdAt,value
2022-09-01T00:00:53.509Z,1014.22
2022-09-01T00:01:53.498Z,1014.23
2022-09-01T00:02:53.584Z,1014.24
2022-09-01T00:03:53.543Z,1014.21
2022-09-01T00:04:53.459Z,1014.23
2022-09-01T00:05:53.446Z,1014.25
2022-09-01T00:06:53.432Z,1014.25
2022-09-01T00:07:53.435Z,1014.31
2022-09-01T00:08:53.421Z,1014.29
2022-09-01T00:09:53.398Z,1014.27
2022-09-01T00:10:53.389Z,1014.26
2022-09-01T00:11:53.382Z,1014.25
2022-09-01T00:12:53.409Z,1014.25
2022-09-01T00:13:53.366Z,1014.30
2022-09-01T00:14:53.344Z,1014.26
2022-09-01T00:15:53.389Z,1014.28
2022-09-01T00:16:53.326Z,1014.26
2022-09-01T00:17:53.308Z,1014.27
2022-09-01T00:18:53.306Z,1014.27
2022-09-01T00:19:53.298Z,1014.27
2022-09-01T00:20:53.282Z,1014.27
2022-09-01T00:21:53.276Z,1014.28
2022-09-01T00:22:53.262Z,1014.29
2022-09-01T00:23:53.260Z,1014.27
2022-09-01T00:24:53.229Z,1014.29
2022-09-01T00:25:53.218Z,1014.30
2022-09-01T00:26:53.213Z,1014.31
2022-09-01T00:27:53.203Z,1014.30
2022-09-01T00:28:53.204Z,1014.30
2022-09-01T00:29:53.176Z,1014.27
2022-09-01T00:30:53.202Z,1014.26
2022-09-01T00:31:53.165Z,1014.24
2022-09-01T00:32:53.138Z,1014.23
2022-09-01T00:33:53.151Z,1014.26
2022-09-01T00:34:53.116Z,1014.25
2022-09-01T00:35:53.114Z,1014.23
2022-09-01T00:36:53.100Z,1014.23
2022-09-01T00:37:53.090Z,1014.24
2022-09-01T00:38:53.085Z,1014.26
2022-09-01T00:39:53.066Z,1014.26
2022-09-01T00:40:53.155Z,1014.25
2022-09-01T00:41:53.044Z,1014.23
2022-09-01T00:42:53.029Z,1014.25
2022-09-01T00:43:53.032Z,1014.27
2022-09-01T00:44:53.006Z,1014.25
2022-09-01T00:45:53.098Z,1014.25
2022-09-01T00:46:55.317Z,1014.24
2022-09-01T00:47:52.974Z,1014.26
2022-09-01T00:48:52.974Z,1014.24
2022-09-01T00:49:52.955Z,1014.23
2022-09-01T00:50:54.690Z,1014.24
2022-09-01T00:51:52.936Z,1014.22
2022-09-01T00:52:52.931Z,1014.20
2022-09-01T00:53:52.920Z,1014.20
2022-09-01T00:54:52.899Z,1014.19
2022-09-01T00:55:52.888Z,1014.17
2022-09-01T00:56:57.747Z,1014.18
2022-09-01T00:57:53.877Z,1014.15
2022-09-01T00:58:52.870Z,1014.18
2022-09-01T00:59:52.844Z,1014.16
2022-09-01T01:00:52.830Z,1014.17
2022-09-01T01:01:52.858Z,1014.18
2022-09-01T01:02:52.858Z,1014.14
2022-09-01T01:03:52.813Z,1014.18
2022-09-01T01:04:52.960Z,1014.16
2022-09-01T01:05:52.777Z,1014.14
2022-09-01T01:06:52.755Z,1014.15
2022-09-01T01:07:52.745Z,1014.14
2022-09-01T01:08:52.748Z,1014.14
2022-09-01T01:09:52.727Z,1014.14
2022-09-01T01:10:52.719Z,1014.19
2022-09-01T01:11:52.706Z,1014.16
2022-09-01T01:12:52.703Z,1014.15
2022-09-01T01:13:52.694Z,1014.19
2022-09-01T01:14:52.668Z,1014.20
2022-09-01T01:15:52.656Z,1014.24
2022-09-01T01:16:52.722Z,1014.18
2022-09-01T01:17:52.641Z,1014.16
2022-09-01T01:18:52.648Z,1014.19
2022-09-01T01:19:52.619Z,1014.22
2022-09-01T01:20:52.601Z,1014.20
2022-09-01T01:21:52.589Z,1014.19
2022-09-01T01:22:52.585Z,1014.24
2022-09-01T01:23:52.586Z,1014.23
2022-09-01T01:24:52.562Z,1014.24
2022-09-01T01:25:52.552Z,1014.20
2022-09-01T01:26:52.540Z,1014.17
2022-09-01T01:27:52.523Z,1014.20
2022-09-01T01:28:52.524Z,1014.20
2022-09-01T01:29:52.516Z,1014.20
2022-09-01T01:30:52.767Z,1014.20
2022-09-01T01:31:52.478Z,1014.17
2022-09-01T01:32:52.471Z,1014.21
2022-09-01T01:33:52.473Z,1014.15
2022-09-01T01:34:52.449Z,1014.19
2022-09-01T01:35:52.431Z,1014.18
2022-09-01T01:36:52.460Z,1014.19
2022-09-01T01:37:52.412Z,1014.20
2022-09-01T01:38:52.424Z,1014.20
2022-09-01T01:39:52.387Z,1014.16
2022-09-01T01:40:52.383Z,1014.19
2022-09-01T01:41:52.369Z,1014.20
2022-09-01T01:42:52.361Z,1014.19
2022-09-01T01:43:52.367Z,1014.20
2022-09-01T01:44:52.343Z,1014.17
2022-09-01T01:45:52.587Z,1014.20
2022-09-01T01:46:52.321Z,1014.21
2022-09-01T01:47:52.303Z,1014.17
2022-09-01T01:48:52.310Z,1014.20
2022-09-01T01:49:52.282Z,1014.22
2022-09-01T01:50:52.273Z,1014.22
2022-09-01T01:51:52.254Z,1014.24
2022-09-01T01:52:58.321Z,1014.22
2022-09-01T01:53:53.249Z,1014.26
2022-09-01T01:54:52.224Z,1014.26
2022-09-01T01:55:52.207Z,1014.29
2022-09-01T01:56:52.203Z,1014.26
2022-09-01T01:57:52.192Z,1014.27
2022-09-01T01:58:52.195Z,1014.26
2022-09-01T01:59:52.163Z,1014.26
2022-09-01T02:00:52.163Z,1014.29
2022-09-01T02:01:52.193Z,1014.28
2022-09-01T02:02:52.215Z,1014.27
2022-09-01T02:03:52.159Z,1014.30
2022-09-01T02:04:52.107Z,1014.28
2022-09-01T02:05:52.095Z,1014.30
2022-09-01T02:06:52.097Z,1014.30
2022-09-01T02:07:52.135Z,1014.30
2022-09-01T02:08:52.068Z,1014.30
2022-09-01T02:09:52.080Z,1014.29
2022-09-01T02:10:52.077Z,1014.33
2022-09-01T02:11:52.073Z,1014.32
2022-09-01T02:12:52.051Z,1014.32
2022-09-01T02:13:52.006Z,1014.32
2022-09-01T02:14:52.006Z,1014.30
2022-09-01T02:15:51.982Z,1014.31
2022-09-01T02:16:52.225Z,1014.32
2022-09-01T02:17:51.962Z,1014.31
2022-09-01T02:18:51.948Z,1014.28
2022-09-01T02:19:51.956Z,1014.27
2022-09-01T02:20:51.928Z,1014.28
2022-09-01T02:21:51.916Z,1014.28
2022-09-01T02:22:51.904Z,1014.21
2022-09-01T02:23:51.899Z,1014.24
2022-09-01T02:24:51.903Z,1014.22
2022-09-01T02:26:14.537Z,1014.22
2022-09-01T02:26:52.872Z,1014.24
2022-09-01T02:27:51.849Z,1014.22
2022-09-01T02:28:55.315Z,1014.20
2022-09-01T02:29:51.848Z,1014.18
2022-09-01T02:30:51.947Z,1014.21
2022-09-01T02:31:51.801Z,1014.22
2022-09-01T02:32:51.801Z,1014.20
2022-09-01T02:33:51.789Z,1014.23
2022-09-01T02:34:51.787Z,1014.22
2022-09-01T02:35:51.757Z,1014.19
2022-09-01T02:36:51.751Z,1014.17
2022-09-01T02:37:51.742Z,1014.19
2022-09-01T02:38:53.703Z,1014.17
2022-09-01T02:39:52.736Z,1014.16
2022-09-01T02:40:51.700Z,1014.18
2022-09-01T02:41:51.693Z,1014.17
2022-09-01T02:42:51.683Z,1014.17
2022-09-01T02:43:51.674Z,1014.14
2022-09-01T02:44:51.674Z,1014.18
2022-09-01T02:45:51.719Z,1014.16
2022-09-01T02:46:51.637Z,1014.15
2022-09-01T02:47:51.637Z,1014.18
2022-09-01T02:48:51.625Z,1014.17
2022-09-01T02:49:51.637Z,1014.20
2022-09-01T02:50:51.591Z,1014.17
2022-09-01T02:51:51.584Z,1014.22
2022-09-01T02:52:51.568Z,1014.23
2022-09-01T02:53:51.570Z,1014.19
2022-09-01T02:54:51.537Z,1014.17
2022-09-01T02:55:51.537Z,1014.19
2022-09-01T02:56:51.523Z,1014.16
2022-09-01T02:57:51.504Z,1014.19
2022-09-01T02:58:51.498Z,1014.20
2022-09-01T02:59:51.482Z,1014.14
2022-09-01T03:00:51.537Z,1014.15
2022-09-01T03:01:51.458Z,1014.17
2022-09-01T03:02:51.455Z,1014.18
2022-09-01T03:03:51.494Z,1014.19
2022-09-01T03:04:51.514Z,1014.16
2022-09-01T03:05:51.435Z,1014.18
2022-09-01T03:06:51.399Z,1014.16
2022-09-01T03:07:51.390Z,1014.19
2022-09-01T03:08:51.391Z,1014.19
2022-09-01T03:09:51.372Z,1014.19
2022-09-01T03:10:51.373Z,1014.19
2022-09-01T03:11:51.347Z,1014.16
2022-09-01T03:12:51.349Z,1014.18
2022-09-01T03:13:51.329Z,1014.18
2022-09-01T03:14:51.315Z,1014.23
2022-09-01T03:15:51.313Z,1014.16
2022-09-01T03:16:51.333Z,1014.16
2022-09-01T03:17:51.275Z,1014.16
2022-09-01T03:18:51.274Z,1014.19
2022-09-01T03:19:51.259Z,1014.16
2022-09-01T03:20:51.264Z,1014.16
2022-09-01T03:21:51.235Z,1014.09
2022-09-01T03:22:51.228Z,1014.14
2022-09-01T03:23:51.214Z,1014.14
2022-09-01T03:24:51.193Z,1014.15
2022-09-01T03:25:51.236Z,1014.16
2022-09-01T03:26:51.179Z,1014.17
2022-09-01T03:27:51.168Z,1014.17
2022-09-01T03:28:51.148Z,1014.21
2022-09-01T03:29:51.146Z,1014.20
2022-09-01T03:30:51.147Z,1014.20
2022-09-01T03:31:51.194Z,1014.20
2022-09-01T03:32:51.108Z,1014.17
2022-09-01T03:33:51.167Z,1014.18
2022-09-01T03:34:51.089Z,1014.15
2022-09-01T03:35:51.089Z,1014.21
2022-09-01T03:36:51.082Z,1014.19
2022-09-01T03:37:51.051Z,1014.19
2022-09-01T03:38:51.041Z,1014.21
2022-09-01T03:39:51.043Z,1014.19
2022-09-01T03:40:52.037Z,1014.22
2022-09-01T03:41:51.008Z,1014.21
2022-09-01T03:42:50.988Z,1014.19
2022-09-01T03:43:50.987Z,1014.20
2022-09-01T03:44:50.964Z,1014.22
2022-09-01T03:45:51.071Z,1014.21
2022-09-01T03:46:50.945Z,1014.20
2022-09-01T03:47:50.933Z,1014.16
2022-09-01T03:48:50.938Z,1014.19
2022-09-01T03:49:50.909Z,1014.11
2022-09-01T03:50:50.912Z,1014.11
2022-09-01T03:51:50.885Z,1014.14
2022-09-01T03:52:50.882Z,1014.14
2022-09-01T03:53:50.862Z,1014.11
2022-09-01T03:54:50.862Z,1014.12
2022-09-01T03:55:50.860Z,1014.12
2022-09-01T03:56:50.828Z,1014.08
2022-09-01T03:57:50.831Z,1014.09
2022-09-01T03:58:50.806Z,1014.08
2022-09-01T03:59:50.799Z,1014.08
2022-09-01T04:00:50.810Z,1014.08
2022-09-01T04:01:50.869Z,1014.07
2022-09-01T04:02:50.766Z,1014.06
2022-09-01T04:03:51.758Z,1014.06
2022-09-01T04:04:50.737Z,1014.04
2022-09-01T04:05:50.740Z,1014.05
2022-09-01T04:06:50.721Z,1014.01
2022-09-01T04:07:50.704Z,1014.03
2022-09-01T04:08:50.700Z,1014.07
2022-09-01T04:09:50.692Z,1014.02
2022-09-01T04:10:54.260Z,1014.09
2022-09-01T04:11:50.660Z,1014.05
2022-09-01T04:12:50.657Z,1014.07
2022-09-01T04:13:50.638Z,1014.07
2022-09-01T04:14:50.629Z,1014.11
2022-09-01T04:15:50.626Z,1014.09
2022-09-01T04:16:50.702Z,1014.11
2022-09-01T04:17:50.600Z,1014.07
2022-09-01T04:18:50.585Z,1014.07
2022-09-01T04:19:50.566Z,1014.06
2022-09-01T04:20:50.565Z,1014.05
2022-09-01T04:21:50.744Z,1014.07
2022-09-01T04:22:50.551Z,1014.06
2022-09-01T04:23:50.519Z,1014.10
2022-09-01T04:24:50.513Z,1014.08
2022-09-01T04:25:50.509Z,1014.09
2022-09-01T04:26:50.503Z,1014.09
2022-09-01T04:27:50.480Z,1014.08
2022-09-01T04:28:50.471Z,1014.07
2022-09-01T04:29:50.457Z,1014.07
2022-09-01T04:30:50.448Z,1014.02
2022-09-01T04:31:50.493Z,1014.08
2022-09-01T04:32:50.419Z,1014.04
2022-09-01T04:33:50.407Z,1014.06
2022-09-01T04:34:50.405Z,1014.06
2022-09-01T04:35:50.396Z,1014.05
2022-09-01T04:36:50.485Z,1014.05
2022-09-01T04:37:50.358Z,1014.05
2022-09-01T04:38:50.349Z,1014.05
2022-09-01T04:39:54.858Z,1014.04
2022-09-01T04:40:51.354Z,1014.07
2022-09-01T04:41:50.434Z,1014.07
2022-09-01T04:42:50.309Z,1014.07
2022-09-01T04:43:50.298Z,1014.07
2022-09-01T04:44:50.279Z,1014.03
2022-09-01T04:45:50.355Z,1014.02
2022-09-01T04:46:50.427Z,1014.05
2022-09-01T04:47:50.253Z,1014.04
2022-09-01T04:48:50.234Z,1014.04
2022-09-01T04:49:50.227Z,1014.09
2022-09-01T04:50:50.211Z,1014.12
2022-09-01T04:51:53.651Z,1014.12
2022-09-01T04:52:50.195Z,1014.15
2022-09-01T04:53:50.190Z,1014.13
2022-09-01T04:54:50.173Z,1014.11
2022-09-01T04:55:50.300Z,1014.17
2022-09-01T04:56:50.168Z,1014.17
2022-09-01T04:57:50.230Z,1014.17
2022-09-01T04:58:50.151Z,1014.14
2022-09-01T04:59:50.108Z,1014.16
2022-09-01T05:00:50.163Z,1014.16
2022-09-01T05:01:50.137Z,1014.16
2022-09-01T05:02:50.085Z,1014.17
2022-09-01T05:03:50.074Z,1014.18
2022-09-01T05:04:50.064Z,1014.15
2022-09-01T05:05:50.061Z,1014.18
2022-09-01T05:06:50.051Z,1014.17
2022-09-01T05:07:50.025Z,1014.18
2022-09-01T05:08:50.017Z,1014.16
2022-09-01T05:09:49.998Z,1014.18
2022-09-01T05:10:49.995Z,1014.18
2022-09-01T05:11:49.997Z,1014.18
2022-09-01T05:12:49.965Z,1014.19
2022-09-01T05:13:49.964Z,1014.21
2022-09-01T05:14:49.975Z,1014.18
2022-09-01T05:15:50.044Z,1014.17
2022-09-01T05:16:50.053Z,1014.14
2022-09-01T05:17:49.908Z,1014.13
2022-09-01T05:18:49.901Z,1014.13
2022-09-01T05:19:49.897Z,1014.11
2022-09-01T05:20:49.883Z,1014.17
2022-09-01T05:21:49.890Z,1014.15
2022-09-01T05:22:49.862Z,1014.17
2022-09-01T05:23:49.841Z,1014.19
2022-09-01T05:24:49.832Z,1014.19
2022-09-01T05:25:49.821Z,1014.18
2022-09-01T05:26:49.823Z,1014.18
2022-09-01T05:27:50.022Z,1014.21
2022-09-01T05:28:49.796Z,1014.27
2022-09-01T05:29:49.786Z,1014.22
2022-09-01T05:30:49.773Z,1014.24
2022-09-01T05:31:50.562Z,1014.24
2022-09-01T05:32:49.764Z,1014.24
2022-09-01T05:33:49.735Z,1014.25
2022-09-01T05:34:49.729Z,1014.25
2022-09-01T05:35:49.752Z,1014.28
2022-09-01T05:36:49.712Z,1014.30
2022-09-01T05:37:49.694Z,1014.33
2022-09-01T05:38:49.677Z,1014.29
2022-09-01T05:39:49.667Z,1014.29
2022-09-01T05:40:49.724Z,1014.28
2022-09-01T05:41:49.674Z,1014.30
2022-09-01T05:42:49.646Z,1014.29
2022-09-01T05:43:49.624Z,1014.25
2022-09-01T05:44:49.623Z,1014.25
2022-09-01T05:46:05.618Z,1014.25
2022-09-01T05:46:50.702Z,1014.31
2022-09-01T05:47:49.578Z,1014.29
2022-09-01T05:48:49.571Z,1014.29
2022-09-01T05:49:49.553Z,1014.27
2022-09-01T05:50:49.544Z,1014.26
2022-09-01T05:51:50.681Z,1014.26
2022-09-01T05:52:49.526Z,1014.27
2022-09-01T05:53:49.508Z,1014.28
2022-09-01T05:54:49.954Z,1014.32
2022-09-01T05:55:49.480Z,1014.37
2022-09-01T05:56:49.490Z,1014.34
2022-09-01T05:57:49.462Z,1014.36
2022-09-01T05:59:50.433Z,1014.37
2022-09-01T06:00:49.512Z,1014.33
2022-09-01T06:01:50.389Z,1014.34
2022-09-01T06:02:49.534Z,1014.35
2022-09-01T06:03:49.396Z,1014.36
2022-09-01T06:04:49.385Z,1014.35
2022-09-01T06:05:49.374Z,1014.33
2022-09-01T06:07:06.573Z,1014.32
2022-09-01T06:07:50.343Z,1014.31
2022-09-01T06:08:49.331Z,1014.33
2022-09-01T06:09:49.328Z,1014.32
2022-09-01T06:10:49.318Z,1014.29
2022-09-01T06:11:49.324Z,1014.31
2022-09-01T06:12:49.293Z,1014.31
2022-09-01T06:13:53.501Z,1014.34
2022-09-01T06:14:50.263Z,1014.33
2022-09-01T06:15:49.318Z,1014.35
2022-09-01T06:16:49.265Z,1014.37
2022-09-01T06:17:49.234Z,1014.36
2022-09-01T06:18:49.219Z,1014.38
2022-09-01T06:19:50.215Z,1014.39
2022-09-01T06:20:49.228Z,1014.34
2022-09-01T06:21:49.183Z,1014.40
2022-09-01T06:22:49.198Z,1014.39
2022-09-01T06:23:49.163Z,1014.37
2022-09-01T06:24:54.464Z,1014.38
2022-09-01T06:25:50.138Z,1014.39
2022-09-01T06:26:49.129Z,1014.32
2022-09-01T06:27:49.137Z,1014.33
2022-09-01T06:28:49.120Z,1014.33
2022-09-01T06:29:49.103Z,1014.36
2022-09-01T06:30:49.093Z,1014.37
2022-09-01T06:31:49.110Z,1014.40
2022-09-01T06:32:49.077Z,1014.38
2022-09-01T06:33:49.048Z,1014.35
2022-09-01T06:34:49.045Z,1014.40
2022-09-01T06:35:49.027Z,1014.42
2022-09-01T06:36:49.016Z,1014.39
2022-09-01T06:37:49.026Z,1014.38
2022-09-01T06:38:49.002Z,1014.40
2022-09-01T06:39:48.981Z,1014.39
2022-09-01T06:40:51.019Z,1014.45
2022-09-01T06:41:48.970Z,1014.46
2022-09-01T06:42:48.969Z,1014.47
2022-09-01T06:43:48.940Z,1014.48
2022-09-01T06:44:48.925Z,1014.48
2022-09-01T06:45:48.915Z,1014.48
2022-09-01T06:46:48.940Z,1014.48
2022-09-01T06:47:48.910Z,1014.51
2022-09-01T06:48:48.903Z,1014.50
2022-09-01T06:49:48.874Z,1014.47
2022-09-01T06:51:49.868Z,1014.53
2022-09-01T06:53:50.060Z,1014.49
2022-09-01T06:54:48.858Z,1014.49
2022-09-01T06:55:48.804Z,1014.47
2022-09-01T06:56:51.517Z,1014.49
2022-09-01T06:58:06.073Z,1014.45
2022-09-01T06:58:49.766Z,1014.47
2022-09-01T06:59:48.753Z,1014.46
2022-09-01T07:00:48.742Z,1014.44
2022-09-01T07:01:49.014Z,1014.43
2022-09-01T07:02:48.806Z,1014.48
2022-09-01T07:03:48.707Z,1014.44
2022-09-01T07:04:48.703Z,1014.46
2022-09-01T07:06:04.160Z,1014.46
2022-09-01T07:08:05.657Z,1014.55
2022-09-01T07:10:05.915Z,1014.50
2022-09-01T07:16:53.305Z,1014.56
2022-09-01T07:17:49.571Z,1014.51
2022-09-01T07:18:58.385Z,1014.53
2022-09-01T07:19:49.547Z,1014.55
2022-09-01T07:23:06.255Z,1014.55
2022-09-01T07:24:10.257Z,1014.57
2022-09-01T07:25:11.508Z,1014.54
2022-09-01T07:26:49.449Z,1014.55
2022-09-01T07:27:48.470Z,1014.51
2022-09-01T07:28:48.433Z,1014.52
2022-09-01T07:29:48.423Z,1014.49
2022-09-01T07:30:48.610Z,1014.49
2022-09-01T07:31:50.000Z,1014.49
2022-09-01T07:32:48.397Z,1014.53
2022-09-01T07:33:53.917Z,1014.50
2022-09-01T07:34:50.138Z,1014.49
2022-09-01T07:39:47.281Z,1014.52
2022-09-01T07:39:50.420Z,1014.51
2022-09-01T07:42:30.801Z,1014.51
2022-09-01T07:42:31.257Z,1014.54
2022-09-01T07:42:59.393Z,1014.54
2022-09-01T07:43:49.278Z,1014.53
2022-09-01T07:44:48.257Z,1014.54
2022-09-01T07:45:57.974Z,1014.51
2022-09-01T07:47:19.549Z,1014.52
2022-09-01T07:47:52.936Z,1014.55
2022-09-01T07:49:29.546Z,1014.53
2022-09-01T07:50:12.395Z,1014.53
2022-09-01T07:51:49.208Z,1014.55
2022-09-01T07:52:48.175Z,1014.52
2022-09-01T07:53:48.147Z,1014.51
2022-09-01T07:54:48.137Z,1014.51
2022-09-01T07:55:48.131Z,1014.56
2022-09-01T07:56:48.114Z,1014.57
2022-09-01T07:57:48.134Z,1014.51
2022-09-01T07:58:48.097Z,1014.60
2022-09-01T07:59:48.080Z,1014.54
2022-09-01T08:00:48.076Z,1014.51
2022-09-01T08:01:48.111Z,1014.52
2022-09-01T08:02:48.115Z,1014.50
2022-09-01T08:03:48.035Z,1014.53
2022-09-01T08:04:48.034Z,1014.54
2022-09-01T08:05:48.012Z,1014.56
2022-09-01T08:06:48.003Z,1014.53
2022-09-01T08:07:55.087Z,1014.54
2022-09-01T08:08:48.981Z,1014.54
2022-09-01T08:09:47.976Z,1014.51
2022-09-01T08:10:48.970Z,1014.51
2022-09-01T08:12:03.490Z,1014.50
2022-09-01T08:12:56.411Z,1014.47
2022-09-01T08:13:52.445Z,1014.49
2022-09-01T08:14:47.977Z,1014.54
2022-09-01T08:16:52.416Z,1014.55
2022-09-01T08:17:51.699Z,1014.52
2022-09-01T08:18:48.538Z,1014.54
2022-09-01T08:19:47.855Z,1014.54
2022-09-01T08:20:47.847Z,1014.52
2022-09-01T08:21:47.848Z,1014.53
2022-09-01T08:22:47.851Z,1014.54
2022-09-01T08:23:47.814Z,1014.51
2022-09-01T08:24:47.803Z,1014.56
2022-09-01T08:25:47.793Z,1014.51
2022-09-01T08:26:47.782Z,1014.53
2022-09-01T08:27:47.791Z,1014.55
2022-09-01T08:28:54.952Z,1014.50
2022-09-01T08:29:48.770Z,1014.49
2022-09-01T08:30:52.602Z,1014.50
2022-09-01T08:31:48.757Z,1014.49
2022-09-01T08:32:47.730Z,1014.54
2022-09-01T08:33:47.696Z,1014.51
2022-09-01T08:34:47.699Z,1014.53
2022-09-01T08:35:47.678Z,1014.54
2022-09-01T08:36:47.675Z,1014.54
2022-09-01T08:37:47.669Z,1014.54
2022-09-01T08:38:47.659Z,1014.54
2022-09-01T08:39:48.658Z,1014.55
2022-09-01T08:40:47.731Z,1014.53
2022-09-01T08:41:47.626Z,1014.54
2022-09-01T08:42:47.596Z,1014.55
2022-09-01T08:43:47.598Z,1014.52
2022-09-01T08:44:47.584Z,1014.52
2022-09-01T08:45:47.563Z,1014.59
2022-09-01T08:46:47.621Z,1014.53
2022-09-01T08:48:15.353Z,1014.56
2022-09-01T08:49:48.882Z,1014.55
2022-09-01T08:50:51.142Z,1014.50
2022-09-01T08:51:48.506Z,1014.52
2022-09-01T08:52:47.484Z,1014.52
2022-09-01T08:53:47.485Z,1014.51
2022-09-01T08:54:47.649Z,1014.44
2022-09-01T08:55:47.521Z,1014.43
2022-09-01T08:56:47.443Z,1014.45
2022-09-01T08:57:47.427Z,1014.47
2022-09-01T08:58:47.499Z,1014.48
2022-09-01T08:59:47.411Z,1014.47
2022-09-01T09:00:50.561Z,1014.39
2022-09-01T09:01:48.466Z,1014.39
2022-09-01T09:02:47.872Z,1014.41
2022-09-01T09:03:47.378Z,1014.40
2022-09-01T09:04:47.354Z,1014.38
2022-09-01T09:05:47.337Z,1014.39
2022-09-01T09:06:47.332Z,1014.37
2022-09-01T09:07:47.315Z,1014.36
2022-09-01T09:08:47.317Z,1014.36
2022-09-01T09:09:53.707Z,1014.31
2022-09-01T09:10:48.279Z,1014.35
2022-09-01T09:11:47.743Z,1014.34
2022-09-01T09:12:50.283Z,1014.33
2022-09-01T09:13:47.276Z,1014.35
2022-09-01T09:14:47.245Z,1014.34
2022-09-01T09:15:47.296Z,1014.29
2022-09-01T09:16:47.243Z,1014.35
2022-09-01T09:17:47.206Z,1014.33
2022-09-01T09:18:55.174Z,1014.30
2022-09-01T09:19:48.180Z,1014.30
2022-09-01T09:20:47.170Z,1014.25
2022-09-01T09:21:47.504Z,1014.24
2022-09-01T09:22:47.655Z,1014.24
2022-09-01T09:23:47.155Z,1014.24
2022-09-01T09:24:47.134Z,1014.27
2022-09-01T09:25:47.120Z,1014.23
2022-09-01T09:26:47.120Z,1014.25
2022-09-01T09:27:47.102Z,1014.19
2022-09-01T09:28:47.094Z,1014.22
2022-09-01T09:29:47.068Z,1014.15
2022-09-01T09:30:48.667Z,1014.14
2022-09-01T09:31:47.055Z,1014.15
2022-09-01T09:33:15.998Z,1014.14
2022-09-01T09:33:52.116Z,1014.13
2022-09-01T09:34:47.013Z,1014.09
2022-09-01T09:35:47.006Z,1014.13
2022-09-01T09:36:53.861Z,1014.11
2022-09-01T09:37:47.990Z,1014.07
2022-09-01T09:38:46.982Z,1014.10
2022-09-01T09:39:46.963Z,1014.06
2022-09-01T09:41:10.421Z,1014.04
2022-09-01T09:41:50.472Z,1014.04
2022-09-01T09:42:47.349Z,1014.09
2022-09-01T09:43:47.587Z,1014.08
2022-09-01T09:44:46.903Z,1014.05
2022-09-01T09:45:46.956Z,1013.99
2022-09-01T09:46:46.934Z,1014.01
2022-09-01T09:47:46.882Z,1013.96
2022-09-01T09:48:46.871Z,1013.96
2022-09-01T09:49:48.845Z,1013.99
2022-09-01T09:50:46.844Z,1014.01
2022-09-01T09:51:46.838Z,1013.94
2022-09-01T09:52:46.837Z,1013.96
2022-09-01T09:53:46.812Z,1013.95
2022-09-01T09:54:46.810Z,1014.01
2022-09-01T09:55:46.796Z,1013.95
2022-09-01T09:56:46.829Z,1013.96
2022-09-01T09:57:46.781Z,1013.94
2022-09-01T09:58:46.782Z,1013.92
2022-09-01T09:59:58.891Z,1013.94
2022-09-01T10:00:47.735Z,1013.93
2022-09-01T10:01:46.760Z,1013.94
2022-09-01T10:02:46.726Z,1013.91
2022-09-01T10:03:46.715Z,1013.95
2022-09-01T10:04:46.690Z,1013.94
2022-09-01T10:05:46.670Z,1013.95
2022-09-01T10:06:47.103Z,1013.97
2022-09-01T10:07:46.663Z,1013.93
2022-09-01T10:08:46.636Z,1013.96
2022-09-01T10:09:46.626Z,1013.93
2022-09-01T10:10:48.730Z,1013.97
2022-09-01T10:11:47.611Z,1014.01
2022-09-01T10:12:46.606Z,1014.02
2022-09-01T10:13:46.590Z,1013.99
2022-09-01T10:14:52.225Z,1013.98
2022-09-01T10:15:49.196Z,1013.85
2022-09-01T10:16:47.901Z,1013.90
2022-09-01T10:17:46.555Z,1013.88
2022-09-01T10:18:46.530Z,1013.90
2022-09-01T10:19:46.516Z,1013.89
2022-09-01T10:20:46.511Z,1013.70
2022-09-01T10:21:46.496Z,1013.67
2022-09-01T10:22:48.381Z,1013.70
2022-09-01T10:23:46.491Z,1013.89
2022-09-01T10:24:50.307Z,1013.94
2022-09-01T10:25:47.792Z,1013.92
2022-09-01T10:26:46.883Z,1013.97
2022-09-01T10:27:46.450Z,1013.99
2022-09-01T10:28:49.506Z,1013.96
2022-09-01T10:29:47.815Z,1013.93
2022-09-01T10:30:46.476Z,1013.87
2022-09-01T10:31:46.397Z,1013.60
2022-09-01T10:32:52.448Z,1013.58
2022-09-01T10:33:47.371Z,1013.60
2022-09-01T10:34:46.363Z,1013.63
2022-09-01T10:35:46.364Z,1013.55
2022-09-01T10:36:47.219Z,1013.73
2022-09-01T10:37:46.338Z,1013.72
2022-09-01T10:38:53.597Z,1013.71
2022-09-01T10:39:47.463Z,1013.68
2022-09-01T10:40:49.269Z,1013.73
2022-09-01T10:41:46.288Z,1013.65
2022-09-01T10:42:46.289Z,1013.62
2022-09-01T10:43:46.266Z,1013.58
2022-09-01T10:44:50.032Z,1013.60
2022-09-01T10:45:49.977Z,1013.57
2022-09-01T10:46:51.198Z,1013.53
2022-09-01T10:47:46.280Z,1013.61
2022-09-01T10:48:51.831Z,1013.57
2022-09-01T10:49:47.195Z,1013.55
2022-09-01T10:50:46.187Z,1013.48
2022-09-01T10:51:56.696Z,1013.51
2022-09-01T10:52:51.250Z,1013.56
2022-09-01T10:53:47.042Z,1013.56
2022-09-01T10:54:55.807Z,1013.54
2022-09-01T10:55:47.125Z,1013.55
2022-09-01T10:56:51.276Z,1013.59
2022-09-01T10:57:47.124Z,1013.58
2022-09-01T10:59:56.776Z,1013.48
2022-09-01T11:01:21.542Z,1013.48
2022-09-01T11:01:49.536Z,1013.48
2022-09-01T11:02:46.420Z,1013.44
2022-09-01T11:03:52.371Z,1013.43
2022-09-01T11:04:47.156Z,1013.46
2022-09-01T11:05:46.029Z,1013.47
2022-09-01T11:07:12.417Z,1013.47
2022-09-01T11:08:14.671Z,1013.45
2022-09-01T11:08:50.839Z,1013.42
2022-09-01T11:09:45.986Z,1013.45
2022-09-01T11:10:45.971Z,1013.43
2022-09-01T11:11:45.953Z,1013.39
2022-09-01T11:12:45.969Z,1013.42
2022-09-01T11:13:49.815Z,1013.46
2022-09-01T11:14:45.929Z,1013.47
2022-09-01T11:15:45.911Z,1013.44
2022-09-01T11:16:46.750Z,1013.45
2022-09-01T11:17:45.909Z,1013.48
2022-09-01T11:18:45.886Z,1013.48
2022-09-01T11:19:45.876Z,1013.49
2022-09-01T11:20:45.871Z,1013.44
2022-09-01T11:21:45.853Z,1013.43
2022-09-01T11:22:45.846Z,1013.34
2022-09-01T11:23:45.826Z,1013.33
2022-09-01T11:24:49.580Z,1013.27
2022-09-01T11:25:47.049Z,1013.31
2022-09-01T11:26:45.798Z,1013.33
2022-09-01T11:27:45.792Z,1013.34
2022-09-01T11:28:45.776Z,1013.37
2022-09-01T11:29:45.767Z,1013.32
2022-09-01T11:30:45.756Z,1013.38
2022-09-01T11:31:45.844Z,1013.36
2022-09-01T11:32:46.989Z,1013.33
2022-09-01T11:33:45.723Z,1013.32
2022-09-01T11:34:45.735Z,1013.29
2022-09-01T11:35:45.695Z,1013.31
2022-09-01T11:36:45.693Z,1013.31
2022-09-01T11:37:45.701Z,1013.32
2022-09-01T11:38:45.669Z,1013.30
2022-09-01T11:39:45.658Z,1013.34
2022-09-01T11:40:45.727Z,1013.30
2022-09-01T11:41:45.637Z,1013.34
2022-09-01T11:42:45.859Z,1013.31
2022-09-01T11:43:45.658Z,1013.27
2022-09-01T11:44:45.609Z,1013.23
2022-09-01T11:45:45.645Z,1013.28
2022-09-01T11:46:45.589Z,1013.27
2022-09-01T11:47:45.593Z,1013.31
2022-09-01T11:48:45.554Z,1013.29
2022-09-01T11:49:46.555Z,1013.24
2022-09-01T11:50:45.540Z,1013.26
2022-09-01T11:51:45.520Z,1013.26
2022-09-01T11:52:45.529Z,1013.22
2022-09-01T11:53:45.503Z,1013.24
2022-09-01T11:54:45.495Z,1013.24
2022-09-01T11:55:45.480Z,1013.24
2022-09-01T11:56:45.476Z,1013.21
2022-09-01T11:57:45.476Z,1013.20
2022-09-01T11:58:45.456Z,1013.21
2022-09-01T11:59:45.436Z,1013.21
2022-09-01T12:00:45.433Z,1013.25
2022-09-01T12:01:45.415Z,1013.19
2022-09-01T12:02:45.512Z,1013.20
2022-09-01T12:03:45.583Z,1013.23
2022-09-01T12:04:45.379Z,1013.18
2022-09-01T12:05:45.431Z,1013.20
2022-09-01T12:06:45.357Z,1013.20
2022-09-01T12:07:45.370Z,1013.21
2022-09-01T12:08:45.344Z,1013.19
2022-09-01T12:09:45.337Z,1013.14
2022-09-01T12:10:45.316Z,1013.09
2022-09-01T12:11:45.324Z,1013.19
2022-09-01T12:12:45.309Z,1013.14
2022-09-01T12:13:45.292Z,1013.10
2022-09-01T12:15:04.886Z,1013.04
2022-09-01T12:16:14.084Z,1013.08
2022-09-01T12:16:46.307Z,1013.02
2022-09-01T12:17:45.256Z,1013.08
2022-09-01T12:18:45.236Z,1013.06
2022-09-01T12:19:45.219Z,1013.02
2022-09-01T12:20:45.251Z,1012.99
2022-09-01T12:21:45.208Z,1012.97
2022-09-01T12:22:45.185Z,1013.03
2022-09-01T12:23:45.189Z,1012.99
2022-09-01T12:24:45.172Z,1013.01
2022-09-01T12:25:45.162Z,1012.98
2022-09-01T12:26:45.153Z,1012.99